METAR Data
IDs: Format: Raw Decoded Include TAF

Data at: 1836 UTC 23 Feb 2019

METAR for:GCLA (La Palma Arpt, --, CR)
Text:GCLA 231830Z 18011KT 150V210 CAVOK 22/08 Q1021
Temperature: 22.0°C ( 72°F)
Dewpoint: 8.0°C ( 46°F) [RH = 41%]
Pressure (altimeter):30.15 inches Hg (1021.0 mb)
Winds:from the S (180 degrees) at 13 MPH (11 knots; 5.7 m/s)
Visibility:6 or more sm (10+ km)
Ceiling:ceiling and visibility are OK
Clouds:unknown